الصفحة الرئيسية
METAR-TAF:

METAR-TAF

مطار :

La Junta Municipal Airport

La Junta, كولورادو, الولايات المتحدة

دائرة عرض: 38-02-58N, خط طول: 103-30-44W, ارتفاع: 1288 متر

مراقبة الطقس الحالي

تاريخ ووقت الإصدار 35 دقيقة قبل الساعة 11:53UTC
ريح 7 عقدة من الشمال الشرقي
درجة الحرارة 16°درجة مئوية
الرطوبة 88%
ضغط 1018 hPa
الرؤية: 16.1 كم
سماء صافية

METAR: KLHX 151153Z AUTO 04007KT 10SM CLR 16/14 A3007 RMK AO2 SLP128 60004 70004 T01610144 10206 20161 50006

زمن: 06:28 (12:28 UTC)


TAF: مفقودة

أرصاد الطقس والتوقعات من أكثر من 4000 مطار (تقارير الطقس للمطار METAR والتنبؤ بالطقس بالمطارTAF).

المحطات المتاحة هي النقط الصفراء والحمراء على الخريطة.

حرك المؤشر فوق النقطة لمعرفة اسم المحطة.

ثم انقر لمعرفة أرصاد وتوقعات الطقس.

لتغيير الخارطة: اضغط على الأزرار الخضراء مع رمز الصليب الأسود للتكبير. على الزر الأخضر مع شرطة للتصغير، أو على الأسهم الخضراء للخرائط المجاورة.


METAR-TAF: